createdAt,value
2017-12-02T00:00:27.570Z,1023.55
2017-12-02T00:01:36.395Z,1023.51
2017-12-02T00:02:45.224Z,1023.48
2017-12-02T00:03:54.326Z,1023.5
2017-12-02T00:05:03.424Z,1023.53
2017-12-02T00:06:12.399Z,1023.51
2017-12-02T00:07:21.222Z,1023.5
2017-12-02T00:08:30.047Z,1023.52
2017-12-02T00:09:38.871Z,1023.54
2017-12-02T00:10:47.693Z,1023.54
2017-12-02T00:11:56.668Z,1023.53
2017-12-02T00:13:05.494Z,1023.52
2017-12-02T00:14:14.320Z,1023.54
2017-12-02T00:15:23.617Z,1023.56
2017-12-02T00:16:32.442Z,1023.48
2017-12-02T00:17:41.515Z,1023.53
2017-12-02T00:18:50.341Z,1023.54
2017-12-02T00:19:59.174Z,1023.52
2017-12-02T00:21:07.998Z,1023.56
2017-12-02T00:22:16.821Z,1023.61
2017-12-02T00:23:25.944Z,1023.57
2017-12-02T00:24:34.768Z,1023.58
2017-12-02T00:25:43.591Z,1023.59
2017-12-02T00:26:52.414Z,1023.6
2017-12-02T00:28:01.236Z,1023.61
2017-12-02T00:29:10.170Z,1023.62
2017-12-02T00:30:19.542Z,1023.58
2017-12-02T00:31:28.365Z,1023.6
2017-12-02T00:32:37.466Z,1023.62
2017-12-02T00:33:46.293Z,1023.58
2017-12-02T00:34:55.694Z,1023.56
2017-12-02T00:36:04.523Z,1023.59
2017-12-02T00:37:13.360Z,1023.57
2017-12-02T00:38:22.167Z,1023.58
2017-12-02T00:39:30.991Z,1023.6
2017-12-02T00:40:40.091Z,1023.6
2017-12-02T00:41:48.915Z,1023.63
2017-12-02T00:42:58.016Z,1023.6
2017-12-02T00:44:06.958Z,1023.61
2017-12-02T00:45:15.785Z,1023.59
2017-12-02T00:46:24.758Z,1023.59
2017-12-02T00:47:33.585Z,1023.61
2017-12-02T00:48:42.407Z,1023.6
2017-12-02T00:49:51.233Z,1023.62
2017-12-02T00:51:00.331Z,1023.67
2017-12-02T00:52:09.403Z,1023.66
2017-12-02T00:53:18.230Z,1023.66
2017-12-02T00:54:27.054Z,1023.68
2017-12-02T00:55:35.880Z,1023.69
2017-12-02T00:56:44.703Z,1023.73
2017-12-02T00:57:53.528Z,1023.73
2017-12-02T00:59:02.357Z,1023.74
2017-12-02T01:00:11.181Z,1023.78
2017-12-02T01:01:20.005Z,1023.73
2017-12-02T01:02:28.829Z,1023.76
2017-12-02T01:03:37.953Z,1023.77
2017-12-02T01:04:46.776Z,1023.74
2017-12-02T01:05:55.601Z,1023.78
2017-12-02T01:07:04.432Z,1023.78
2017-12-02T01:08:13.255Z,1023.81
2017-12-02T01:09:22.081Z,1023.77
2017-12-02T01:10:30.907Z,1023.84
2017-12-02T01:11:40.003Z,1023.8
2017-12-02T01:12:48.829Z,1023.83
2017-12-02T01:13:59.080Z,1023.77
2017-12-02T01:15:07.902Z,1023.81
2017-12-02T01:16:16.727Z,1023.83
2017-12-02T01:17:25.552Z,1023.87
2017-12-02T01:18:34.377Z,1023.87
2017-12-02T01:19:43.472Z,1023.91
2017-12-02T01:20:52.298Z,1023.9
2017-12-02T01:22:01.400Z,1023.91
2017-12-02T01:23:10.221Z,1023.96
2017-12-02T01:24:19.043Z,1023.92
2017-12-02T01:25:27.866Z,1023.94
2017-12-02T01:26:36.990Z,1023.94
2017-12-02T01:27:45.814Z,1023.93
2017-12-02T01:28:54.913Z,1023.95
2017-12-02T01:30:04.012Z,1024.01
2017-12-02T01:31:13.112Z,1023.96
2017-12-02T01:32:22.037Z,1024
2017-12-02T01:33:31.136Z,1024.03
2017-12-02T01:34:39.958Z,1023.99
2017-12-02T01:35:48.781Z,1024
2017-12-02T01:36:57.606Z,1024.03
2017-12-02T01:38:06.434Z,1024.02
2017-12-02T01:39:15.254Z,1024.02
2017-12-02T01:40:24.077Z,1024.02
2017-12-02T01:41:32.898Z,1024.03
2017-12-02T01:42:41.723Z,1024.06
2017-12-02T01:43:50.847Z,1024.11
2017-12-02T01:44:59.671Z,1024.09
2017-12-02T01:46:08.495Z,1024.14
2017-12-02T01:47:17.317Z,1024.1
2017-12-02T01:48:26.142Z,1024.14
2017-12-02T01:49:35.339Z,1024.13
2017-12-02T01:50:44.164Z,1024.1
2017-12-02T01:51:52.987Z,1024.09
2017-12-02T01:53:02.117Z,1024.06
2017-12-02T01:54:11.216Z,1024.09
2017-12-02T01:55:20.737Z,1024.11
2017-12-02T01:56:29.562Z,1024.19
2017-12-02T01:57:38.387Z,1024.18
2017-12-02T01:58:47.212Z,1024.22
2017-12-02T01:59:56.037Z,1024.25
2017-12-02T02:01:05.161Z,1024.25
2017-12-02T02:02:14.597Z,1024.25
2017-12-02T02:03:23.419Z,1024.28
2017-12-02T02:04:32.242Z,1024.32
2017-12-02T02:05:41.065Z,1024.3
2017-12-02T02:06:50.190Z,1024.28
2017-12-02T02:07:59.016Z,1024.29
2017-12-02T02:09:07.839Z,1024.28
2017-12-02T02:10:17.218Z,1024.27
2017-12-02T02:11:26.043Z,1024.27
2017-12-02T02:12:34.863Z,1024.27
2017-12-02T02:13:43.686Z,1024.23
2017-12-02T02:14:52.508Z,1024.24
2017-12-02T02:16:01.331Z,1024.22
2017-12-02T02:17:10.159Z,1024.26
2017-12-02T02:18:18.980Z,1024.24
2017-12-02T02:19:27.804Z,1024.24
2017-12-02T02:20:36.628Z,1024.25
2017-12-02T02:21:45.449Z,1024.2
2017-12-02T02:22:54.277Z,1024.21
2017-12-02T02:24:03.196Z,1024.17
2017-12-02T02:25:12.020Z,1024.17
2017-12-02T02:26:20.842Z,1024.18
2017-12-02T02:27:29.671Z,1024.13
2017-12-02T02:28:38.767Z,1024.13
2017-12-02T02:29:47.590Z,1024.16
2017-12-02T02:30:56.415Z,1024.14
2017-12-02T02:32:05.237Z,1024.1
2017-12-02T02:33:14.063Z,1024.12
2017-12-02T02:34:22.885Z,1024.12
2017-12-02T02:35:32.036Z,1024.15
2017-12-02T02:36:40.866Z,1024.15
2017-12-02T02:37:49.680Z,1024.16
2017-12-02T02:38:58.505Z,1024.16
2017-12-02T02:40:07.325Z,1024.18
2017-12-02T02:41:16.147Z,1024.18
2017-12-02T02:42:25.246Z,1024.22
2017-12-02T02:43:34.356Z,1024.22
2017-12-02T02:44:43.177Z,1024.23
2017-12-02T02:45:51.999Z,1024.22
2017-12-02T02:47:00.872Z,1024.27
2017-12-02T02:48:09.699Z,1024.23
2017-12-02T02:49:18.520Z,1024.21
2017-12-02T02:50:27.620Z,1024.27
2017-12-02T02:51:36.442Z,1024.22
2017-12-02T02:52:45.434Z,1024.25
2017-12-02T02:53:54.541Z,1024.26
2017-12-02T02:55:03.362Z,1024.3
2017-12-02T02:56:12.183Z,1024.32
2017-12-02T02:57:21.006Z,1024.28
2017-12-02T02:58:30.030Z,1024.33
2017-12-02T02:59:38.852Z,1024.3
2017-12-02T03:00:47.675Z,1024.31
2017-12-02T03:01:56.494Z,1024.35
2017-12-02T03:03:05.590Z,1024.36
2017-12-02T03:04:14.515Z,1024.34
2017-12-02T03:05:23.337Z,1024.37
2017-12-02T03:06:32.430Z,1024.34
2017-12-02T03:07:41.252Z,1024.35
2017-12-02T03:08:50.075Z,1024.33
2017-12-02T03:09:58.897Z,1024.33
2017-12-02T03:11:07.719Z,1024.34
2017-12-02T03:12:16.542Z,1024.38
2017-12-02T03:13:25.364Z,1024.35
2017-12-02T03:14:34.186Z,1024.39
2017-12-02T03:15:43.310Z,1024.38
2017-12-02T03:16:52.133Z,1024.35
2017-12-02T03:18:00.956Z,1024.4
2017-12-02T03:19:09.779Z,1024.39
2017-12-02T03:20:18.598Z,1024.41
2017-12-02T03:21:27.571Z,1024.43
2017-12-02T03:22:36.395Z,1024.43
2017-12-02T03:23:45.217Z,1024.42
2017-12-02T03:24:54.039Z,1024.44
2017-12-02T03:26:02.860Z,1024.43
2017-12-02T03:27:11.990Z,1024.44
2017-12-02T03:28:20.806Z,1024.42
2017-12-02T03:29:29.903Z,1024.42
2017-12-02T03:30:38.728Z,1024.42
2017-12-02T03:31:47.549Z,1024.46
2017-12-02T03:32:56.372Z,1024.44
2017-12-02T03:34:05.193Z,1024.47
2017-12-02T03:35:14.012Z,1024.51
2017-12-02T03:36:22.842Z,1024.5
2017-12-02T03:37:31.663Z,1024.52
2017-12-02T03:38:40.549Z,1024.55
2017-12-02T03:39:49.371Z,1024.54
2017-12-02T03:40:58.194Z,1024.55
2017-12-02T03:42:07.116Z,1024.52
2017-12-02T03:43:15.938Z,1024.57
2017-12-02T03:44:24.764Z,1024.55
2017-12-02T03:45:33.593Z,1024.57
2017-12-02T03:46:42.417Z,1024.52
2017-12-02T03:47:51.235Z,1024.56
2017-12-02T03:49:00.057Z,1024.55
2017-12-02T03:50:09.178Z,1024.54
2017-12-02T03:51:18.286Z,1024.55
2017-12-02T03:52:27.107Z,1024.53
2017-12-02T03:53:35.931Z,1024.54
2017-12-02T03:54:44.757Z,1024.51
2017-12-02T03:55:53.578Z,1024.54
2017-12-02T03:57:02.407Z,1024.5
2017-12-02T03:58:11.229Z,1024.49
2017-12-02T03:59:20.053Z,1024.54
2017-12-02T04:00:28.873Z,1024.54
2017-12-02T04:01:37.697Z,1024.58
2017-12-02T04:02:46.518Z,1024.63
2017-12-02T04:03:55.345Z,1024.59
2017-12-02T04:05:04.172Z,1024.59
2017-12-02T04:06:12.993Z,1024.62
2017-12-02T04:07:22.016Z,1024.66
2017-12-02T04:08:30.839Z,1024.66
2017-12-02T04:09:39.663Z,1024.61
2017-12-02T04:10:48.487Z,1024.63
2017-12-02T04:11:57.308Z,1024.58
2017-12-02T04:13:06.405Z,1024.58
2017-12-02T04:14:15.228Z,1024.54
2017-12-02T04:15:24.049Z,1024.54
2017-12-02T04:16:33.347Z,1024.53
2017-12-02T04:17:42.168Z,1024.53
2017-12-02T04:18:51.040Z,1024.54
2017-12-02T04:20:00.136Z,1024.61
2017-12-02T04:21:08.959Z,1024.58
2017-12-02T04:22:18.055Z,1024.59
2017-12-02T04:23:26.980Z,1024.6
2017-12-02T04:24:36.102Z,1024.59
2017-12-02T04:25:44.923Z,1024.62
2017-12-02T04:26:53.748Z,1024.62
2017-12-02T04:28:02.843Z,1024.64
2017-12-02T04:29:11.663Z,1024.67
2017-12-02T04:30:20.485Z,1024.73
2017-12-02T04:31:29.313Z,1024.73
2017-12-02T04:32:38.403Z,1024.75
2017-12-02T04:33:47.225Z,1024.69
2017-12-02T04:34:56.048Z,1024.74
2017-12-02T04:36:05.192Z,1024.74
2017-12-02T04:37:13.994Z,1024.78
2017-12-02T04:38:22.817Z,1024.74
2017-12-02T04:39:31.639Z,1024.78
2017-12-02T04:40:40.460Z,1024.79
2017-12-02T04:41:49.281Z,1024.81
2017-12-02T04:42:58.117Z,1024.83
2017-12-02T04:44:07.083Z,1024.8
2017-12-02T04:45:15.905Z,1024.81
2017-12-02T04:46:24.729Z,1024.84
2017-12-02T04:47:33.548Z,1024.86
2017-12-02T04:48:42.644Z,1024.87
2017-12-02T04:49:51.467Z,1024.87
2017-12-02T04:51:00.291Z,1024.86
2017-12-02T04:52:09.113Z,1024.88
2017-12-02T04:53:18.082Z,1024.93
2017-12-02T04:54:26.905Z,1024.93
2017-12-02T04:55:35.726Z,1024.96
2017-12-02T04:56:44.548Z,1024.94
2017-12-02T04:57:53.368Z,1024.95
2017-12-02T04:59:02.616Z,1024.95
2017-12-02T05:00:11.434Z,1024.97
2017-12-02T05:01:20.258Z,1024.95
2017-12-02T05:02:29.083Z,1024.94
2017-12-02T05:03:37.903Z,1024.95
2017-12-02T05:04:46.824Z,1024.93
2017-12-02T05:05:55.646Z,1024.94
2017-12-02T05:07:04.472Z,1024.94
2017-12-02T05:08:13.288Z,1024.91
2017-12-02T05:09:22.112Z,1024.93
2017-12-02T05:10:31.083Z,1024.94
2017-12-02T05:11:39.905Z,1025
2017-12-02T05:12:48.728Z,1025
2017-12-02T05:13:58.099Z,1025
2017-12-02T05:15:06.925Z,1025.03
2017-12-02T05:16:16.022Z,1024.98
2017-12-02T05:17:24.842Z,1025.01
2017-12-02T05:18:33.664Z,1025.07
2017-12-02T05:19:42.485Z,1025.05
2017-12-02T05:20:51.307Z,1025.08
2017-12-02T05:22:00.454Z,1025.07
2017-12-02T05:23:09.278Z,1025.08
2017-12-02T05:24:18.101Z,1025.12
2017-12-02T05:25:26.922Z,1025.13
2017-12-02T05:26:35.747Z,1025.1
2017-12-02T05:27:45.168Z,1025.12
2017-12-02T05:28:54.269Z,1025.12
2017-12-02T05:30:03.091Z,1025.14
2017-12-02T05:31:11.917Z,1025.2
2017-12-02T05:32:21.284Z,1025.18
2017-12-02T05:33:30.109Z,1025.21
2017-12-02T05:34:38.930Z,1025.24
2017-12-02T05:35:47.751Z,1025.28
2017-12-02T05:36:57.128Z,1025.37
2017-12-02T05:38:05.965Z,1025.38
2017-12-02T05:39:14.787Z,1025.34
2017-12-02T05:40:23.609Z,1025.42
2017-12-02T05:41:32.434Z,1025.4
2017-12-02T05:42:41.255Z,1025.42
2017-12-02T05:43:50.078Z,1025.42
2017-12-02T05:44:58.905Z,1025.45
2017-12-02T05:46:07.727Z,1025.5
2017-12-02T05:47:16.549Z,1025.51
2017-12-02T05:48:25.377Z,1025.54
2017-12-02T05:49:34.197Z,1025.57
2017-12-02T05:50:43.319Z,1025.62
2017-12-02T05:51:52.140Z,1025.62
2017-12-02T05:53:00.963Z,1025.62
2017-12-02T05:54:09.785Z,1025.58
2017-12-02T05:55:18.607Z,1025.62
2017-12-02T05:56:27.431Z,1025.64
2017-12-02T05:57:36.253Z,1025.67
2017-12-02T05:58:45.075Z,1025.69
2017-12-02T05:59:53.898Z,1025.68
2017-12-02T06:01:02.720Z,1025.73
2017-12-02T06:02:11.694Z,1025.74
2017-12-02T06:03:20.795Z,1025.74
2017-12-02T06:04:29.618Z,1025.73
2017-12-02T06:05:38.437Z,1025.76
2017-12-02T06:06:47.263Z,1025.75
2017-12-02T06:07:56.185Z,1025.77
2017-12-02T06:09:05.008Z,1025.84
2017-12-02T06:10:13.830Z,1025.84
2017-12-02T06:11:22.652Z,1025.79
2017-12-02T06:12:31.476Z,1025.77
2017-12-02T06:13:40.298Z,1025.8
2017-12-02T06:14:49.120Z,1025.8
2017-12-02T06:15:57.948Z,1025.8
2017-12-02T06:17:06.772Z,1025.8
2017-12-02T06:18:15.596Z,1025.81
2017-12-02T06:19:24.417Z,1025.85
2017-12-02T06:20:33.242Z,1025.89
2017-12-02T06:21:42.342Z,1025.9
2017-12-02T06:22:51.166Z,1025.9
2017-12-02T06:23:59.990Z,1025.86
2017-12-02T06:25:08.811Z,1025.82
2017-12-02T06:26:17.635Z,1025.82
2017-12-02T06:27:26.459Z,1025.83
2017-12-02T06:28:35.283Z,1025.79
2017-12-02T06:29:44.107Z,1025.77
2017-12-02T06:30:52.977Z,1025.83
2017-12-02T06:32:02.041Z,1025.85
2017-12-02T06:33:10.863Z,1025.8
2017-12-02T06:34:19.688Z,1025.84
2017-12-02T06:35:28.511Z,1025.81
2017-12-02T06:36:37.437Z,1025.77
2017-12-02T06:37:46.533Z,1025.71
2017-12-02T06:38:55.357Z,1025.77
2017-12-02T06:40:04.456Z,1025.75
2017-12-02T06:41:13.280Z,1025.76
2017-12-02T06:42:22.252Z,1025.77
2017-12-02T06:43:31.351Z,1025.8
2017-12-02T06:44:40.175Z,1025.81
2017-12-02T06:45:48.998Z,1025.81
2017-12-02T06:46:57.823Z,1025.85
2017-12-02T06:48:06.748Z,1025.78
2017-12-02T06:49:15.578Z,1025.81
2017-12-02T06:50:24.676Z,1025.75
2017-12-02T06:51:33.498Z,1025.76
2017-12-02T06:52:42.320Z,1025.74
2017-12-02T06:53:51.243Z,1025.71
2017-12-02T06:55:00.340Z,1025.66
2017-12-02T06:56:09.163Z,1025.68
2017-12-02T06:57:17.988Z,1025.7
2017-12-02T06:58:26.809Z,1025.68
2017-12-02T06:59:35.634Z,1025.7
2017-12-02T07:00:44.457Z,1025.72
2017-12-02T07:01:53.280Z,1025.71
2017-12-02T07:03:02.106Z,1025.71
2017-12-02T07:04:10.931Z,1025.72
2017-12-02T07:05:19.756Z,1025.79
2017-12-02T07:06:28.584Z,1025.77
2017-12-02T07:07:37.406Z,1025.78
2017-12-02T07:08:46.232Z,1025.81
2017-12-02T07:09:55.056Z,1025.82
2017-12-02T07:11:03.883Z,1025.81
2017-12-02T07:12:12.707Z,1025.78
2017-12-02T07:13:21.533Z,1025.79
2017-12-02T07:14:30.355Z,1025.77
2017-12-02T07:15:39.177Z,1025.77
2017-12-02T07:16:48.300Z,1025.78
2017-12-02T07:17:57.125Z,1025.81
2017-12-02T07:19:05.951Z,1025.85
2017-12-02T07:20:14.777Z,1025.89
2017-12-02T07:21:23.880Z,1025.88
2017-12-02T07:22:32.747Z,1025.89
2017-12-02T07:23:41.571Z,1025.87
2017-12-02T07:24:50.423Z,1025.9
2017-12-02T07:25:59.242Z,1025.9
2017-12-02T07:27:08.067Z,1025.92
2017-12-02T07:28:17.042Z,1025.93
2017-12-02T07:29:25.867Z,1025.94
2017-12-02T07:30:34.689Z,1026
2017-12-02T07:31:43.514Z,1026.03
2017-12-02T07:32:52.337Z,1026.07
2017-12-02T07:34:01.312Z,1026.05
2017-12-02T07:35:10.134Z,1026.07
2017-12-02T07:36:19.232Z,1026.05
2017-12-02T07:37:28.108Z,1026.06
2017-12-02T07:38:36.933Z,1026.05
2017-12-02T07:39:45.856Z,1026.05
2017-12-02T07:40:54.681Z,1026.04
2017-12-02T07:42:03.507Z,1026.03
2017-12-02T07:43:12.338Z,1026.07
2017-12-02T07:44:21.163Z,1026.08
2017-12-02T07:45:30.145Z,1026.11
2017-12-02T07:46:38.964Z,1026.1
2017-12-02T07:47:47.790Z,1026.08
2017-12-02T07:48:56.615Z,1026.11
2017-12-02T07:50:05.443Z,1026.09
2017-12-02T07:51:14.417Z,1026.07
2017-12-02T07:52:23.247Z,1026.09
2017-12-02T07:53:32.073Z,1026.1
2017-12-02T07:54:40.895Z,1026.16
2017-12-02T07:55:50.001Z,1026.21
2017-12-02T07:56:58.823Z,1026.22
2017-12-02T07:58:07.649Z,1026.2
2017-12-02T07:59:16.474Z,1026.2
2017-12-02T08:00:25.296Z,1026.18
2017-12-02T08:01:34.121Z,1026.19
2017-12-02T08:02:45.429Z,1026.24
2017-12-02T08:03:58.829Z,1026.26
2017-12-02T08:05:11.148Z,1026.25
2017-12-02T08:06:23.046Z,1026.21
2017-12-02T08:07:35.870Z,1026.27
2017-12-02T08:08:48.588Z,1026.28
2017-12-02T08:10:01.377Z,1026.32
2017-12-02T08:11:10.340Z,1026.33
2017-12-02T08:12:19.163Z,1026.3
2017-12-02T08:13:28.289Z,1026.28
2017-12-02T08:14:37.114Z,1026.36
2017-12-02T08:15:45.942Z,1026.31
2017-12-02T08:16:54.764Z,1026.3
2017-12-02T08:18:03.587Z,1026.32
2017-12-02T08:19:12.412Z,1026.36
2017-12-02T08:20:21.237Z,1026.35
2017-12-02T08:21:30.064Z,1026.37
2017-12-02T08:22:38.946Z,1026.38
2017-12-02T08:23:47.771Z,1026.35
2017-12-02T08:24:56.595Z,1026.35
2017-12-02T08:26:05.423Z,1026.35
2017-12-02T08:27:14.248Z,1026.31
2017-12-02T08:28:23.072Z,1026.35
2017-12-02T08:29:31.899Z,1026.32
2017-12-02T08:30:40.725Z,1026.36
2017-12-02T08:31:49.551Z,1026.35
2017-12-02T08:32:58.378Z,1026.37
2017-12-02T08:34:07.206Z,1026.39
2017-12-02T08:35:16.028Z,1026.45
2017-12-02T08:36:24.852Z,1026.46
2017-12-02T08:37:33.679Z,1026.48
2017-12-02T08:38:42.499Z,1026.42
2017-12-02T08:39:51.326Z,1026.39
2017-12-02T08:41:00.169Z,1026.44
2017-12-02T08:42:09.096Z,1026.42
2017-12-02T08:43:17.924Z,1026.44
2017-12-02T08:44:26.755Z,1026.45
2017-12-02T08:45:36.138Z,1026.44
2017-12-02T08:46:44.959Z,1026.47
2017-12-02T08:47:54.034Z,1026.52
2017-12-02T08:49:02.860Z,1026.48
2017-12-02T08:50:11.683Z,1026.48
2017-12-02T08:51:20.513Z,1026.46
2017-12-02T08:52:29.894Z,1026.49
2017-12-02T08:53:39.096Z,1026.46
2017-12-02T08:54:47.919Z,1026.48
2017-12-02T08:55:56.746Z,1026.53
2017-12-02T08:57:05.569Z,1026.57
2017-12-02T08:58:14.396Z,1026.57
2017-12-02T08:59:23.271Z,1026.59
2017-12-02T09:00:32.096Z,1026.59
2017-12-02T09:01:40.923Z,1026.64
2017-12-02T09:02:49.747Z,1026.69
2017-12-02T09:03:58.850Z,1026.68
2017-12-02T09:05:07.675Z,1026.7
2017-12-02T09:06:16.501Z,1026.72
2017-12-02T09:07:25.326Z,1026.73
2017-12-02T09:08:34.152Z,1026.77
2017-12-02T09:09:43.258Z,1026.81
2017-12-02T09:10:52.134Z,1026.81
2017-12-02T09:12:00.964Z,1026.83
2017-12-02T09:13:09.788Z,1026.84
2017-12-02T09:14:18.615Z,1026.88
2017-12-02T09:15:27.441Z,1026.85
2017-12-02T09:16:36.268Z,1026.89
2017-12-02T09:17:45.093Z,1026.91
2017-12-02T09:18:54.195Z,1026.91
2017-12-02T09:20:03.020Z,1026.93
2017-12-02T09:21:11.846Z,1026.89
2017-12-02T09:22:20.822Z,1026.92
2017-12-02T09:23:29.923Z,1026.92
2017-12-02T09:24:38.751Z,1026.97
2017-12-02T09:25:47.573Z,1026.93
2017-12-02T09:26:56.396Z,1026.98
2017-12-02T09:28:05.223Z,1026.95
2017-12-02T09:29:14.063Z,1026.95
2017-12-02T09:30:22.891Z,1026.95
2017-12-02T09:31:31.717Z,1026.98
2017-12-02T09:32:40.545Z,1026.96
2017-12-02T09:33:49.789Z,1026.94
2017-12-02T09:34:58.615Z,1026.97
2017-12-02T09:36:07.442Z,1027
2017-12-02T09:37:16.268Z,1027
2017-12-02T09:38:25.093Z,1027.01
2017-12-02T09:39:33.922Z,1027.03
2017-12-02T09:40:42.749Z,1027.04
2017-12-02T09:41:51.572Z,1027.03
2017-12-02T09:43:00.398Z,1027.09
2017-12-02T09:44:09.228Z,1027.06
2017-12-02T09:45:18.051Z,1027.08
2017-12-02T09:46:26.881Z,1027.06
2017-12-02T09:47:35.707Z,1027.04
2017-12-02T09:48:44.533Z,1027.04
2017-12-02T09:49:53.508Z,1027.04
2017-12-02T09:51:02.333Z,1027.05
2017-12-02T09:52:11.161Z,1027.08
2017-12-02T09:53:19.987Z,1027.05
2017-12-02T09:54:28.814Z,1027.04
2017-12-02T09:55:37.638Z,1027.03
2017-12-02T09:56:46.473Z,1027
2017-12-02T09:57:55.301Z,1027.03
2017-12-02T09:59:04.129Z,1027.03
2017-12-02T10:00:12.955Z,1027.03
2017-12-02T10:01:22.053Z,1027.06
2017-12-02T10:02:30.877Z,1027.06
2017-12-02T10:03:39.707Z,1027.05
2017-12-02T10:04:48.533Z,1027.05
2017-12-02T10:05:57.373Z,1027.05
2017-12-02T10:07:06.199Z,1027.02
2017-12-02T10:08:15.025Z,1026.98
2017-12-02T10:09:23.851Z,1027.01
2017-12-02T10:10:32.980Z,1026.98
2017-12-02T10:11:41.803Z,1027
2017-12-02T10:12:50.631Z,1027.01
2017-12-02T10:13:59.457Z,1027.03
2017-12-02T10:15:08.283Z,1026.99
2017-12-02T10:16:17.160Z,1026.99
2017-12-02T10:17:26.259Z,1026.99
2017-12-02T10:18:35.086Z,1026.97
2017-12-02T10:19:44.193Z,1026.94
2017-12-02T10:20:53.017Z,1026.98
2017-12-02T10:22:01.896Z,1026.97
2017-12-02T10:23:10.992Z,1026.97
2017-12-02T10:24:19.827Z,1026.95
2017-12-02T10:25:28.653Z,1026.99
2017-12-02T10:26:37.500Z,1026.97
2017-12-02T10:27:46.471Z,1026.92
2017-12-02T10:28:55.297Z,1026.91
2017-12-02T10:30:04.122Z,1026.88
2017-12-02T10:31:12.949Z,1026.85
2017-12-02T10:32:21.782Z,1026.83
2017-12-02T10:33:30.606Z,1026.82
2017-12-02T10:34:39.431Z,1026.82
2017-12-02T10:35:48.257Z,1026.86
2017-12-02T10:36:57.086Z,1026.88
2017-12-02T10:38:06.186Z,1026.95
2017-12-02T10:39:15.014Z,1026.89
2017-12-02T10:40:23.839Z,1026.96
2017-12-02T10:41:32.669Z,1026.94
2017-12-02T10:42:41.487Z,1026.96
2017-12-02T10:43:50.314Z,1026.95
2017-12-02T10:44:59.290Z,1026.9
2017-12-02T10:46:08.118Z,1026.77
2017-12-02T10:47:16.946Z,1026.73
2017-12-02T10:48:25.770Z,1026.72
2017-12-02T10:49:34.598Z,1026.73
2017-12-02T10:50:43.423Z,1026.68
2017-12-02T10:51:52.250Z,1026.76
2017-12-02T10:53:01.076Z,1026.74
2017-12-02T10:54:09.902Z,1026.72
2017-12-02T10:55:18.753Z,1026.7
2017-12-02T10:56:27.705Z,1026.68
2017-12-02T10:57:36.530Z,1026.68
2017-12-02T10:58:45.357Z,1026.64
2017-12-02T10:59:54.185Z,1026.61
2017-12-02T11:01:03.284Z,1026.58
2017-12-02T11:02:12.410Z,1026.58
2017-12-02T11:03:21.240Z,1026.58
2017-12-02T11:04:30.065Z,1026.59
2017-12-02T11:05:38.890Z,1026.58
2017-12-02T11:06:47.716Z,1026.59
2017-12-02T11:07:56.590Z,1026.54
2017-12-02T11:09:05.417Z,1026.55
2017-12-02T11:10:14.245Z,1026.53
2017-12-02T11:11:23.070Z,1026.52
2017-12-02T11:12:31.899Z,1026.49
2017-12-02T11:13:41.028Z,1026.5
2017-12-02T11:14:49.853Z,1026.45
2017-12-02T11:15:58.676Z,1026.47
2017-12-02T11:17:07.502Z,1026.43
2017-12-02T11:18:16.326Z,1026.47
2017-12-02T11:19:25.203Z,1026.46
2017-12-02T11:20:34.032Z,1026.45
2017-12-02T11:21:42.854Z,1026.43
2017-12-02T11:22:51.685Z,1026.41
2017-12-02T11:24:00.510Z,1026.4
2017-12-02T11:25:09.486Z,1026.38
2017-12-02T11:26:18.323Z,1026.35
2017-12-02T11:27:27.141Z,1026.35
2017-12-02T11:28:35.965Z,1026.33
2017-12-02T11:29:45.073Z,1026.38
2017-12-02T11:30:54.052Z,1026.31
2017-12-02T11:32:03.154Z,1026.34
2017-12-02T11:33:11.978Z,1026.35
2017-12-02T11:34:20.806Z,1026.29
2017-12-02T11:35:29.633Z,1026.35
2017-12-02T11:36:38.730Z,1026.26
2017-12-02T11:37:47.560Z,1026.32
2017-12-02T11:38:56.666Z,1026.3
2017-12-02T11:40:05.490Z,1026.29
2017-12-02T11:41:14.319Z,1026.29
2017-12-02T11:42:23.446Z,1026.29
2017-12-02T11:43:32.272Z,1026.27
2017-12-02T11:44:41.096Z,1026.31
2017-12-02T11:45:49.929Z,1026.36
2017-12-02T11:46:58.746Z,1026.32
2017-12-02T11:48:07.828Z,1026.3
2017-12-02T11:49:16.650Z,1026.31
2017-12-02T11:50:25.472Z,1026.32
2017-12-02T11:51:34.294Z,1026.33
2017-12-02T11:52:43.398Z,1026.27
2017-12-02T11:53:52.223Z,1026.33
2017-12-02T11:55:01.051Z,1026.35
2017-12-02T11:56:09.876Z,1026.33
2017-12-02T11:57:18.707Z,1026.33
2017-12-02T11:58:27.806Z,1026.34
2017-12-02T11:59:36.934Z,1026.36
2017-12-02T12:00:45.762Z,1026.33
2017-12-02T12:01:54.591Z,1026.27
2017-12-02T12:03:03.416Z,1026.27
2017-12-02T12:04:12.245Z,1026.3
2017-12-02T12:05:21.070Z,1026.27
2017-12-02T12:06:29.897Z,1026.23
2017-12-02T12:07:38.728Z,1026.25
2017-12-02T12:08:47.830Z,1026.3
2017-12-02T12:09:56.656Z,1026.28
2017-12-02T12:11:05.914Z,1026.26
2017-12-02T12:12:15.017Z,1026.29
2017-12-02T12:13:23.843Z,1026.28
2017-12-02T12:14:32.668Z,1026.26
2017-12-02T12:15:41.495Z,1026.3
2017-12-02T12:16:50.471Z,1026.29
2017-12-02T12:17:59.299Z,1026.25
2017-12-02T12:19:08.128Z,1026.27
2017-12-02T12:20:16.950Z,1026.29
2017-12-02T12:21:25.781Z,1026.23
2017-12-02T12:22:34.602Z,1026.28
2017-12-02T12:23:43.429Z,1026.32
2017-12-02T12:24:52.527Z,1026.29
2017-12-02T12:26:01.357Z,1026.32
2017-12-02T12:27:10.183Z,1026.32
2017-12-02T12:28:19.108Z,1026.27
2017-12-02T12:29:27.992Z,1026.29
2017-12-02T12:30:36.817Z,1026.27
2017-12-02T12:31:45.644Z,1026.3
2017-12-02T12:32:54.473Z,1026.3
2017-12-02T12:34:03.501Z,1026.3
2017-12-02T12:35:12.326Z,1026.3
2017-12-02T12:36:21.150Z,1026.28
2017-12-02T12:37:29.977Z,1026.29
2017-12-02T12:38:38.802Z,1026.28
2017-12-02T12:39:47.742Z,1026.25
2017-12-02T12:40:56.581Z,1026.3
2017-12-02T12:42:05.410Z,1026.28
2017-12-02T12:43:14.236Z,1026.28
2017-12-02T12:44:23.061Z,1026.3
2017-12-02T12:45:31.887Z,1026.28
2017-12-02T12:46:40.720Z,1026.3
2017-12-02T12:47:49.544Z,1026.3
2017-12-02T12:48:58.704Z,1026.27
2017-12-02T12:50:07.469Z,1026.24
2017-12-02T12:51:16.628Z,1026.23
2017-12-02T12:52:25.456Z,1026.25
2017-12-02T12:53:34.282Z,1026.2
2017-12-02T12:54:43.110Z,1026.21
2017-12-02T12:55:52.210Z,1026.23
2017-12-02T12:57:01.200Z,1026.19
2017-12-02T12:58:10.298Z,1026.26
2017-12-02T12:59:19.404Z,1026.19
2017-12-02T13:00:28.514Z,1026.21
2017-12-02T13:01:37.613Z,1026.24
2017-12-02T13:02:46.542Z,1026.23
2017-12-02T13:03:55.367Z,1026.24
2017-12-02T13:05:04.194Z,1026.24
2017-12-02T13:06:13.019Z,1026.18
2017-12-02T13:07:22.120Z,1026.2
2017-12-02T13:08:31.496Z,1026.23
2017-12-02T13:09:40.321Z,1026.24
2017-12-02T13:10:49.147Z,1026.2
2017-12-02T13:11:57.972Z,1026.25
2017-12-02T13:13:06.797Z,1026.23
2017-12-02T13:14:15.623Z,1026.21
2017-12-02T13:15:24.450Z,1026.16
2017-12-02T13:16:33.277Z,1026.18
2017-12-02T13:17:42.101Z,1026.25
2017-12-02T13:18:50.926Z,1026.18
2017-12-02T13:20:00.054Z,1026.18
2017-12-02T13:21:08.879Z,1026.19
2017-12-02T13:22:17.982Z,1026.17
2017-12-02T13:23:26.807Z,1026.12
2017-12-02T13:24:35.920Z,1026.1
2017-12-02T13:25:44.903Z,1026.11
2017-12-02T13:26:53.732Z,1026.11
2017-12-02T13:28:02.833Z,1026.07
2017-12-02T13:29:11.657Z,1026.04
2017-12-02T13:30:20.510Z,1026
2017-12-02T13:31:29.610Z,1026
2017-12-02T13:32:38.575Z,1026.04
2017-12-02T13:33:47.402Z,1026.04
2017-12-02T13:34:56.229Z,1026.07
2017-12-02T13:36:05.053Z,1026.06
2017-12-02T13:37:13.878Z,1026.06
2017-12-02T13:38:22.983Z,1026.08
2017-12-02T13:39:31.810Z,1026.03
2017-12-02T13:40:40.638Z,1026.05
2017-12-02T13:41:49.463Z,1026.12
2017-12-02T13:42:58.390Z,1026.06
2017-12-02T13:44:07.219Z,1026
2017-12-02T13:45:16.044Z,1026.06
2017-12-02T13:46:24.871Z,1026
2017-12-02T13:47:33.696Z,1026.05
2017-12-02T13:48:42.602Z,1026.09
2017-12-02T13:49:51.750Z,1026.1
2017-12-02T13:51:00.577Z,1026.1
2017-12-02T13:52:09.405Z,1026.16
2017-12-02T13:53:18.229Z,1026.12
2017-12-02T13:54:27.053Z,1026.09
2017-12-02T13:55:35.878Z,1026.14
2017-12-02T13:56:44.706Z,1026.13
2017-12-02T13:57:53.534Z,1026.13